Chatuge Observed Data For Previous 48 Hours

Caption
Day and Hour Reservoir Elevation (behind dam)* Tailwater Elevation (below dam)* Average Hourly Discharge*
1/15/2018 2 AM EST 1,917.91 1,802.26 0
1/15/2018 3 AM EST 1,917.91 1,802.15 0
1/15/2018 4 AM EST 1,917.92 1,804.56 437
1/15/2018 5 AM EST 1,917.92 1,805.67 1,243
1/15/2018 6 AM EST 1,917.91 1,805.72 1,236
1/15/2018 7 AM EST 1,917.90 1,805.77 1,234
1/15/2018 8 AM EST 1,917.89 1,805.76 1,240
1/15/2018 9 AM EST 1,917.88 1,805.70 1,238
1/15/2018 10 AM EST 1,917.86 1,805.74 1,236
1/15/2018 11 AM EST 1,917.86 1,803.38 34
1/15/2018 12 PM EST 1,917.86 1,802.96 0
1/15/2018 1 PM EST 1,917.86 1,802.60 0
1/15/2018 2 PM EST 1,917.86 1,802.26 0
1/15/2018 3 PM EST 1,917.86 1,802.15 0
1/15/2018 4 PM EST 1,917.87 1,802.15 0
1/15/2018 5 PM EST 1,917.88 1,802.15 0
1/15/2018 6 PM EST 1,917.88 1,802.15 0
1/15/2018 7 PM EST 1,917.89 1,803.55 45
1/15/2018 8 PM EST 1,917.89 1,805.63 1,273
1/15/2018 9 PM EST 1,917.88 1,805.80 1,260
1/15/2018 10 PM EST 1,917.87 1,805.77 1,260
1/15/2018 11 PM EST 1,917.86 1,805.78 1,261
1/16/2018 12 AM EST 1,917.86 1,803.38 34
1/16/2018 1 AM EST 1,917.86 1,802.96 0
1/16/2018 2 AM EST 1,917.86 1,802.60 0
1/16/2018 3 AM EST 1,917.86 1,802.26 0
1/16/2018 4 AM EST 1,917.87 1,803.74 49
1/16/2018 5 AM EST 1,917.87 1,805.64 1,274
1/16/2018 6 AM EST 1,917.87 1,805.80 1,267
1/16/2018 7 AM EST 1,917.85 1,805.78 1,254
1/16/2018 8 AM EST 1,917.84 1,805.69 1,230
1/16/2018 9 AM EST 1,917.83 1,805.77 1,237
1/16/2018 10 AM EST 1,917.81 1,805.83 1,271
1/16/2018 11 AM EST 1,917.81 1,803.38 38
1/16/2018 12 PM EST 1,917.81 1,802.96 0
1/16/2018 1 PM EST 1,917.80 1,802.60 0
1/16/2018 2 PM EST 1,917.81 1,802.26 0
1/16/2018 3 PM EST 1,917.81 1,802.15 0
1/16/2018 4 PM EST 1,917.81 1,802.15 0
1/16/2018 5 PM EST 1,917.81 1,802.15 0
1/16/2018 6 PM EST 1,917.83 1,804.00 186
1/16/2018 7 PM EST 1,917.83 1,805.68 1,297
1/16/2018 8 PM EST 1,917.82 1,805.86 1,291
1/16/2018 9 PM EST 1,917.82 1,805.83 1,284
1/16/2018 10 PM EST 1,917.80 1,805.79 1,282
1/16/2018 11 PM EST 1,917.79 1,805.80 1,278
1/17/2018 12 AM EST 1,917.79 1,803.38 35
1/17/2018 1 AM EST 1,917.79 1,802.95 0
1/17/2018 2 AM EST 1,917.79 1,802.60 0
1/17/2018 3 AM EST 1,917.79 1,802.25 0
1/17/2018 4 AM EST 1,917.79 1,802.15 0
1/17/2018 5 AM EST 1,917.79 1,803.83 39
1/17/2018 6 AM EST 1,917.79 1,805.80 1,326
1/17/2018 7 AM EST 1,917.79 1,805.85 1,314
1/17/2018 8 AM EST 1,917.79 1,805.93 1,315
1/17/2018 9 AM EST 1,917.78 1,805.84 1,315
1/17/2018 10 AM EST 1,917.76 1,805.96 1,316
1/17/2018 11 AM EST 1,917.74 1,805.93 1,315
1/17/2018 12 PM EST 1,917.74 1,803.39 36
1/17/2018 1 PM EST 1,917.73 1,802.96 0
1/17/2018 2 PM EST 1,917.73 1,802.59 0
1/17/2018 3 PM EST 1,917.74 1,802.25 0
1/17/2018 4 PM EST 1,917.74 1,802.15 0
1/17/2018 5 PM EST 1,917.74 1,802.15 0
1/17/2018 6 PM EST 1,917.74 1,803.22 16
1/17/2018 7 PM EST 1,917.74 1,805.67 1,286
1/17/2018 8 PM EST 1,917.74 1,805.73 1,265
1/17/2018 9 PM EST 1,917.73 1,805.82 1,268
1/17/2018 10 PM EST 1,917.72 1,805.78 1,265

Elevations are in feet above sea level. Discharges are in cubic feet per second and are reported at the end of the hour.